• Join FlightAware (Why Join?)
  • Login
  • US Flag 
01:51PM EDT


 

Airport Tracker/Info


-or-


 

Live Flight TrackerFlight Track Log ✈ EJA396 ✈ 04-May-2013 ✈ KPSP - KMAF

Flight Track Log - Related Links

Times and Time Zones

All times are in EDT time to prevent confusion due to time zone crossing. See the EJA396 flight status page for this flight to view local times or setup timezone preferences in your user account.

Time Position Orientation Groundspeed Altitude Reporting Facility
EDT Latitude Longitude Course Direction KTS MPH feet Rate Location/Type
04:00PM 33.8500 -116.5167 320° Northwest 163 188 2,000  Level Southern California TRACON
04:01PM 33.8833 -116.5500 320° Northwest 215 247 5,000 3,360 Climbing Southern California TRACON
04:01PM 33.9200 -116.5656 341° North 226 260 6,900 2,280 Climbing Los Angeles Center
04:02PM 33.9333 -116.4894 78° East 255 293 8,700 1,980 Climbing Los Angeles Center
04:03PM 33.8878 -116.4164 127° Southeast 278 320 11,000 2,400 Climbing Los Angeles Center
04:04PM 33.8628 -116.3028 105° East 340 391 13,700 2,700 Climbing Los Angeles Center
04:05PM 33.8442 -116.1786 100° East 369 425 16,600 2,700 Climbing Los Angeles Center
04:06PM 33.8217 -116.0247 100° East 388 447 19,400 2,160 Climbing Los Angeles Center
04:07PM 33.8006 -115.8881 100° East 411 473 21,200 1,680 Climbing Los Angeles Center
04:08PM 33.7803 -115.7464 100° East 430 495 23,000 1,740 Climbing Los Angeles Center
04:09PM 33.7569 -115.5992 101° East 447 514 24,800 1,740 Climbing Los Angeles Center
04:10PM 33.7331 -115.4475 101° East 459 528 26,700 1,200 Climbing Los Angeles Center
04:11PM 33.6958 -115.2978 107° East 469 540 27,400 600 Climbing Los Angeles Center
04:12PM 33.6303 -115.1586 119° Southeast 476 548 28,000 240 Climbing Los Angeles Center
04:14PM 33.5517 -114.9903 119° Southeast 481 554 28,000  Level Los Angeles Center
04:15PM 33.4856 -114.8500 119° Southeast 481 554 28,000 480 Level Los Angeles Center
04:16PM 33.4356 -114.7014 112° Southeast 490 564 29,000 1,140 Climbing Los Angeles Center
04:16PM 33.4267 -114.6097 97° East 491 565 29,900 1,320 Climbing Albuquerque Center
04:17PM 33.4053 -114.4497 99° East 492 566 31,200 1,200 Climbing Albuquerque Center
04:18PM 33.3822 -114.2889 100° East 492 566 32,400 1,140 Climbing Albuquerque Center
04:19PM 33.3592 -114.1283 100° East 490 564 33,600 1,140 Climbing Albuquerque Center
04:20PM 33.3350 -113.9689 100° East 489 563 34,800 1,260 Climbing Albuquerque Center
04:21PM 33.3069 -113.7767 100° East 489 563 36,200 1,140 Climbing Albuquerque Center
04:22PM 33.2828 -113.6194 100° East 483 556 37,200 960 Climbing Albuquerque Center
04:23PM 33.2589 -113.4600 100° East 486 559 38,200 960 Climbing Albuquerque Center
04:24PM 33.2356 -113.3031 100° East 483 556 39,200 960 Climbing Albuquerque Center
04:25PM 33.2111 -113.1472 101° East 478 550 40,200 720 Climbing Albuquerque Center
04:26PM 33.1878 -112.9936 100° East 473 544 40,700 360 Climbing Albuquerque Center
04:27PM 33.1631 -112.8378 101° East 474 545 41,000 120 Climbing Albuquerque Center
04:28PM 33.1383 -112.6792 101° East 480 552 41,000  Level Albuquerque Center
04:29PM 33.1119 -112.5183 101° East 488 562 41,000  Level Albuquerque Center
04:31PM 33.0806 -112.3208 101° East 500 575 41,000  Level Albuquerque Center
04:32PM 33.0572 -112.1725 101° East 503 579 41,000  Level Albuquerque Center
04:33PM 33.0308 -112.0114 101° East 500 575 41,000  Level Albuquerque Center
04:34PM 33.0050 -111.8514 101° East 496 571 41,000  Level Albuquerque Center
04:35PM 32.9742 -111.6606 101° East 494 568 41,000  Level Albuquerque Center
04:36PM 32.9475 -111.5022 101° East 492 566 41,000  Level Albuquerque Center
04:37PM 32.9211 -111.3428 101° East 493 567 41,000  Level Albuquerque Center
04:38PM 32.8939 -111.1842 102° East 493 567 41,000  Level Albuquerque Center
04:39PM 32.8672 -111.0250 101° East 493 567 41,000  Level Albuquerque Center
04:40PM 32.8397 -110.8658 102° East 493 567 41,000  Level Albuquerque Center
04:41PM 32.8125 -110.7078 102° East 492 566 41,000  Level Albuquerque Center
04:42PM 32.7844 -110.5469 102° East 492 566 41,000  Level Albuquerque Center
04:43PM 32.7506 -110.3589 102° East 490 564 41,000  Level Albuquerque Center
04:44PM 32.7222 -110.2014 102° East 491 565 41,000  Level Albuquerque Center
04:45PM 32.6936 -110.0461 102° East 490 564 41,000  Level Albuquerque Center
04:46PM 32.6658 -109.8908 102° East 488 562 41,000  Level Albuquerque Center
04:47PM 32.6375 -109.7358 102° East 487 560 41,000  Level Albuquerque Center
04:48PM 32.6014 -109.5478 103° East 492 566 41,000  Level Albuquerque Center
04:49PM 32.5733 -109.3939 102° East 488 562 41,000  Level Albuquerque Center
04:50PM 32.5439 -109.2397 103° East 487 560 41,000  Level Albuquerque Center
04:51PM 32.5158 -109.0869 102° East 485 558 41,000  Level Albuquerque Center
04:52PM 32.4869 -108.9339 103° East 485 558 41,000  Level Albuquerque Center
04:53PM 32.4511 -108.7503 103° East 485 558 41,000  Level Albuquerque Center
04:54PM 32.4225 -108.5983 103° East 483 556 41,000  Level Albuquerque Center
04:55PM 32.3928 -108.4433 103° East 483 556 41,000  Level Albuquerque Center
04:56PM 32.3622 -108.2886 103° East 485 558 41,000  Level Albuquerque Center
04:57PM 32.3322 -108.1339 103° East 485 558 41,000  Level Albuquerque Center
04:58PM 32.3019 -107.9800 103° East 484 557 41,000  Level Albuquerque Center
04:59PM 32.2647 -107.7944 103° East 485 558 41,000  Level Albuquerque Center
05:00PM 32.2353 -107.6406 103° East 484 557 41,000  Level Albuquerque Center
05:01PM 32.2050 -107.4950 104° East 484 557 41,000  Level Albuquerque Center
05:02PM 32.1736 -107.3350 103° East 484 557 41,000  Level Albuquerque Center
05:03PM 32.1419 -107.1825 104° East 486 559 41,000  Level Albuquerque Center
05:04PM 32.1050 -106.9986 103° East 487 560 41,000  Level Albuquerque Center
05:05PM 32.0736 -106.8458 104° East 486 559 41,000  Level Albuquerque Center
05:06PM 32.0417 -106.6925 104° East 486 559 41,000  Level Albuquerque Center
05:07PM 32.0083 -106.5392 104° East 486 559 41,000  Level Albuquerque Center
05:09PM 31.9758 -106.3856 104° East 486 559 41,000  Level Albuquerque Center
05:10PM 31.9531 -106.2269 100° East 495 570 41,000  Level Albuquerque Center
05:11PM 31.9486 -106.0667 92° East 493 567 41,000  Level Albuquerque Center
05:12PM 31.9447 -105.8931 91° East 494 568 41,000  Level Albuquerque Center
05:13PM 31.9419 -105.7314 91° East 493 567 41,000  Level Albuquerque Center
05:14PM 31.9383 -105.5694 91° East 494 568 41,000  Level Albuquerque Center
05:15PM 31.9347 -105.3736 91° East 497 572 41,000  Level Albuquerque Center
05:16PM 31.9322 -105.2117 91° East 496 571 41,000  Level Albuquerque Center
05:17PM 31.9286 -105.0486 91° East 495 570 41,000  Level Albuquerque Center
05:18PM 31.9250 -104.8869 91° East 494 568 41,000  Level Albuquerque Center
05:19PM 31.9206 -104.7236 92° East 497 572 41,000 -780 Level Albuquerque Center
05:20PM 31.9158 -104.5581 92° East 502 578 39,400 -2,100 Descending Albuquerque Center
05:21PM 31.9106 -104.3978 92° East 496 571 36,800 -2,520 Descending Albuquerque Center
05:22PM 31.9081 -104.2422 91° East 484 557 34,300 -2,460 Descending Albuquerque Center
05:23PM 31.9025 -104.0922 92° East 467 537 31,800 -2,580 Descending Albuquerque Center
05:24PM 31.8981 -103.9217 92° East 470 541 29,100 -2,580 Descending Albuquerque Center
05:25PM 31.8933 -103.7628 92° East 480 552 26,500 -2,520 Descending Albuquerque Center
05:26PM 31.8894 -103.6086 92° East 479 551 24,000 -2,400 Descending Albuquerque Center
05:27PM 31.8836 -103.4633 93° East 457 526 21,600 -2,460 Descending Albuquerque Center
05:28PM 31.8775 -103.3053 93° East 412 474 19,000 -2,220 Descending Albuquerque Center
05:29PM 31.8844 -103.1728 86° East 408 470 17,100 -1,740 Descending Albuquerque Center
05:30PM 31.8983 -103.0653 81° East 399 459 15,700 -1,560 Descending Fort Worth Center
05:31PM 31.9142 -102.9417 81° East 391 450 14,200 -960 Descending Fort Worth Center
05:32PM 31.9300 -102.8203 81° East 383 441 13,800 -1,020 Descending Fort Worth Center
05:33PM 31.9475 -102.7011 80° East 378 435 12,200 -1,500 Descending Fort Worth Center
05:34PM 31.9606 -102.5869 82° East 360 414 10,800 -1,560 Descending Fort Worth Center
05:35PM 31.9731 -102.4897 81° East 329 379 9,100 -1,860 Descending Fort Worth Center
05:36PM 31.9844 -102.4072 81° East 288 331 7,100 -2,100 Descending Fort Worth Center
05:37PM 31.9894 -102.3339 85° East 247 284 4,900 -1,560 Descending Fort Worth Center
05:38PM 31.9708 -102.2792 112° Southeast 191 220 4,000 -840 Descending Fort Worth Center
05:39PM 31.9558 -102.2367 113° Southeast 153 176 3,300 -540 Descending Fort Worth Center
05:40PM 31.9447 -102.1969 108° East 139 160 3,000 -300 Descending Fort Worth Center
05:47PM 31.9425 -102.2019 290° West  Level Estimated
05:54PM 31.9425 -102.2019 290° West  Level Estimated